METAR Reports From Nearby Airports

 

KTIW - Tacoma, Washington, USA
Distance from station: S 6mi, 10km
Updated: Fri, 18-Aug-2017 5:53pm PDT
Mostly cloudy
Mostly cloudy
 Wind from WNW
Wind: WNW 5 mph , 7 km/h
Temperature: 72°F , 22°C
Dew Point: 57°F , 14°C
Humidity: 61%
Barometer: 30.12 inHg , 1020 hPa
Clouds: Mostly cloudy
Visibility: 10 miles , 16 km
Cloud details: Few Clouds 2400 ft
Mostly cloudy 4000 ft
Mostly cloudy 5000 ft
2017/08/19 00:53 KTIW 190053Z 29004KT 10SM FEW024 BKN040 BKN050 22/14 A3012 RMK AO2 SLP199 T02170139
KPWT - Bremerton Ntnl, Washington, USA
Distance from station: NW 13mi, 20km
Updated: Fri, 18-Aug-2017 5:56pm PDT
Overcast
Overcast
 Wind from ENE
Wind: ENE 8 mph , 13 km/h
Temperature: 72°F , 22°C
Dew Point: 55°F , 13°C
Humidity: 57%
Barometer: 30.13 inHg , 1020.3 hPa
Clouds: Overcast
Cloud details: Overcast 5500 ft
2017/08/19 00:56 KPWT 190056Z AUTO 06007KT OVC055 22/13 A3013 RMK AO2 SLP218 T02170128 PWINO $
KSEA - Seattle/Metro, Washington, USA
Distance from station: ENE 14mi, 23km
Updated: Fri, 18-Aug-2017 5:53pm PDT
Partly cloudy
Partly cloudy
 Wind from NW
Wind: NW 6 mph , 9 km/h
Temperature: 72°F , 22°C
Dew Point: 54°F , 12°C
Humidity: 53%
Barometer: 30.13 inHg , 1020.3 hPa
Clouds: Partly cloudy
Visibility: 10 miles , 16 km
Cloud details: Few Clouds 3000 ft
Partly cloudy 6000 ft
2017/08/19 00:53 KSEA 190053Z 31005KT 10SM FEW030 SCT060 22/12 A3013 RMK AO2 SLP208 T02170122
 
KTCM - Tacoma/Mc Chord, Washington, USA
Distance from station: SSE 17mi, 28km
Updated: Fri, 18-Aug-2017 5:58pm PDT
Overcast
Overcast
 Wind from NW
Wind: NW 6 mph , 9 km/h
Temperature: 73°F , 23°C
Dew Point: 61°F , 16°C
Humidity: 65%
Barometer: 30.12 inHg , 1020 hPa
Clouds: Overcast
Visibility: 10 miles , 16 km
Cloud details: Overcast 4900 ft
2017/08/19 00:58 KTCM 190058Z AUTO 31005KT 10SM OVC049 23/16 A3012 RMK AO2 SLP203 T02250162 $
KBFI - Seattle/Boeing, Washington, USA
Distance from station: NE 19mi, 30km
Updated: Fri, 18-Aug-2017 5:53pm PDT
Partly cloudy
Partly cloudy
 Wind from NW
Wind: NW 6 mph , 9 km/h
Temperature: 73°F , 23°C
Dew Point: 57°F , 14°C
Humidity: 57%
Barometer: 30.12 inHg , 1020 hPa
Clouds: Partly cloudy
Visibility: 10 miles , 16 km
Cloud details: Partly cloudy 3000 ft
2017/08/19 00:53 KBFI 190053Z 32005KT 10SM SCT030 23/14 A3012 RMK AO2 SLP198 T02280139
KGRF - Fort Lewis/Gray, Washington, USA
Distance from station: S 20mi, 32km
Updated: Fri, 18-Aug-2017 5:58pm PDT
Mostly cloudy
Mostly cloudy
 Wind from W
Wind: W 9 mph , 15 km/h
Temperature: 73°F , 23°C
Dew Point: 61°F , 16°C
Humidity: 65%
Barometer: 30.11 inHg , 1019.6 hPa
Clouds: Mostly cloudy
Visibility: 10 miles , 16 km
Cloud details: Mostly cloudy 4600 ft
2017/08/19 00:58 KGRF 190058Z 26008KT 10SM BKN046 23/16 A3011 RMK AO2A SLP199 T02280163 $
 
KRNT - Renton, Washington, USA
Distance from station: ENE 20mi, 32km
Updated: Fri, 18-Aug-2017 5:53pm PDT
Clear
Clear
 Wind from SW
Wind: SW 7 mph , 11 km/h
Temperature: 73°F , 23°C
Dew Point: 55°F , 13°C
Humidity: 53%
Barometer: 30.11 inHg , 1019.6 hPa
Clouds: Clear
Visibility: 10 miles , 16 km
2017/08/19 00:53 KRNT 190053Z 22006KT 10SM CLR 23/13 A3011 RMK AO2 SLP202 T02330128
KPLU - Puyallup/Thun, Washington, USA
Distance from station: SE 23mi, 36km
Updated: Fri, 18-Aug-2017 6:35pm PDT
Overcast
Overcast
 Wind from calm
Wind: Calm
Temperature: 73°F , 23°C
Dew Point: 59°F , 15°C
Humidity: 61%
Barometer: 30.13 inHg , 1020.3 hPa
Clouds: Overcast
Visibility: 10 miles , 16 km
Cloud details: Few Clouds 3800 ft
Mostly cloudy 5000 ft
Overcast 5500 ft
2017/08/19 01:35 KPLU 190135Z AUTO 00000KT 10SM FEW038 BKN050 OVC055 23/15 A3013 RMK AO2
KSHN - Shelton, Washington, USA
Distance from station: WSW 27mi, 43km
Updated: Fri, 18-Aug-2017 5:53pm PDT
Partly cloudy
Partly cloudy
 Wind from SW
Wind: SW 14 mph , 22 km/h
Temperature: 75°F , 24°C
Dew Point: 57°F , 14°C
Humidity: 54%
Barometer: 30.09 inHg , 1019 hPa
Clouds: Partly cloudy
Visibility: 10 miles , 16 km
Cloud details: Few Clouds 4900 ft
Partly cloudy 6000 ft
2017/08/19 00:53 KSHN 190053Z AUTO 22012KT 10SM FEW049 SCT060 24/14 A3009 RMK AO2 SLP189 T02390144
 
KOLM - Olympia, Washington, USA
Distance from station: SSW 30mi, 49km
Updated: Fri, 18-Aug-2017 5:54pm PDT
Mostly cloudy
Mostly cloudy
 Wind from W
Wind: W 9 mph , 15 km/h
Temperature: 73°F , 23°C
Dew Point: 57°F , 14°C
Humidity: 57%
Barometer: 30.12 inHg , 1020 hPa
Clouds: Mostly cloudy
Visibility: 10 miles , 16 km
Cloud details: Mostly cloudy 3500 ft
Mostly cloudy 5000 ft
2017/08/19 00:54 KOLM 190054Z 27008KT 10SM BKN035 BKN050 23/14 A3012 RMK AO2 SLP201 T02330144
KPAE - Everett, Washington, USA
Distance from station: NNE 41mi, 67km
Updated: Fri, 18-Aug-2017 5:53pm PDT
Overcast
Overcast
 Wind from NNW
Wind: NNW 8 mph , 13 km/h
Temperature: 66°F , 19°C
Dew Point: 57°F , 14°C
Humidity: 73%
Barometer: 30.15 inHg , 1021 hPa
Clouds: Overcast
Visibility: 10 miles , 16 km
Cloud details: Partly cloudy 4800 ft
Overcast 7500 ft
2017/08/19 00:53 KPAE 190053Z 33007KT 10SM SCT048 OVC075 19/14 A3015 RMK AO2 SLP208 T01940144
KCLS - Chehalis Central, Washington, USA
Distance from station: SSW 50mi, 80km
Updated: Fri, 18-Aug-2017 6:35pm PDT
Mostly cloudy
Mostly cloudy
 Wind from varies
Wind: varies 7 mph , 11 km/h
Temperature: 72°F , 22°C
Dew Point: 59°F , 15°C
Humidity: 65%
Barometer: 30.14 inHg , 1020.7 hPa
Clouds: Mostly cloudy
Visibility: 10 miles , 16 km
Cloud details: Mostly cloudy 4000 ft
2017/08/19 01:35 KCLS 190135Z AUTO VRB06KT 10SM BKN040 22/15 A3014 RMK AO2